AirNav   Pilot Hours Calculator
 
 346 users online  

43WI Eagle Ridge Ultralight Flightpark
Colfax, Wisconsin, USA

GOING TO COLFAX?


FAA INFORMATION EFFECTIVE 03 DECEMBER 2020

Location

FAA Identifier: 43WI
Lat/Long: 45-01-53.5200N 091-43-57.0000W
45-01.892000N 091-43.950000W
45.0315333,-91.7325000
(estimated)
Elevation: 1067 ft. / 325 m (estimated)
From city: 3 miles N of COLFAX, WI
Time zone: UTC -6 (UTC -5 during Daylight Saving Time)
Zip code: 54730

Ultralight Flight Park Operations

Ultralight Flight Park use: Private use. Permission required prior to landing
Activation date: 07/2009
Control tower: no
ARTCC: MINNEAPOLIS CENTER
FSS: GREEN BAY FLIGHT SERVICE STATION
Attendance: UNATNDD
Wind indicator: yes
Segmented circle: no

Ultralight Flight Park Communications

UNICOM: 122.8
WX AWOS-3 at LUM (10 nm SW): 118.025 (715-235-5342)
WX ASOS at EAU (14 nm SE): 126.025 (715-832-7990)
WX AWOS-3P at Y23 (17 nm N): 119.05 (715-924-1836)

Nearby radio navigation aids

VOR radial/distance  VOR name  Freq  Var
EAUr303/13.4EAU CLAIRE VORTAC113.6504E

Ultralight Flight Park Services

Runway Information

Runway 11U/29U

Dimensions: 800 x 90 ft. / 244 x 27 m
Surface: turf
RUNWAY 11U  RUNWAY 29U
Traffic pattern: leftleft

Helipad H1

Dimensions: 90 x 90 ft. / 27 x 27 m
Surface: turf
Traffic pattern: leftleft

Ultralight Flight Park Ownership and Management from official FAA records

Ownership: Privately-owned
Owner: DONALD ARVOLD
N 9730 COUNTY RD W
COLFAX, WI 54730
Phone 715-977-0022
Manager: DONALD ARVOLD
N 9730 COUNTY RD W
COLFAX, WI 54730
Phone 715-977-0022

Ultralight Flight Park Operational Statistics

Aircraft based on the field: 1
Helicopters: 1
    

Additional Remarks

HEL ACTIVITY ON AND IN VCNTY OF RY.
FOR CD CTC MINNEAPOLIS ARTCC AT 651-463-5588.

Instrument Procedures

There are no published instrument procedures at 43WI.

Some nearby airports with instrument procedures:

KLUM - Menomonie Municipal Airport-Score Field (10 nm SW)
3T3 - Boyceville Municipal Airport (12 nm W)
KEAU - Chippewa Valley Regional Airport (14 nm SE)
Y23 - Chetek Municipal-Southworth Airport (17 nm N)
KRPD - Rice Lake Regional Airport - Carl's Field (23 nm N)
 
Loc | Ops | Rwys | IFR | FBO | Links
Com | Nav | Svcs | Stats | Notes
Aerial photo
No photo
 
Sectional chart

 
Airport distance calculator
Flying to Eagle Ridge Ultralight Flightpark? Find the distance to fly.

From to 43WI

Sunrise and sunset
Times for 03-Dec-2020
 Local
(UTC-6)
 Zulu
(UTC)
Morning civil twilight06:5612:56
Sunrise07:2913:29
Sunset16:2522:25
Evening civil twilight16:5822:58

Current date and time
Zulu (UTC)  03-Dec-2020 10:05:45
Local (UTC-6)  03-Dec-2020 04:05:45
 
METAR
KLUM 
10nm SW 
030955Z AUTO 24006KT 10SM CLR M03/M05 A3015 RMK AO2 T10301047
KEAU 
15nm SE 
030956Z AUTO 24005KT 10SM BKN019 M02/M04 A3014 RMK AO2 SLP216 T10171039
KY23 
17nm N 
030955Z AUTO 22003KT 10SM CLR M02/M04 A3010 RMK AO2 T10251038
TAF
KEAU 
15nm SE 
030520Z 0306/0406 28007KT P6SM SCT015 OVC018 FM030900 26006KT P6SM BKN180
NOTAMs
Click for the latest NOTAMs
NOTAMs are issued by the DoD/FAA and will open in a separate window not controlled by AirNav.

 

 
 

Would you like to see your business listed on this page?

 If your business provides an interesting product or service to pilots, flight crews, aircraft, or users of the Eagle Ridge Ultralight Flightpark, you should consider listing it here.  To start the listing process, click on the button below
 
Add a business
 

Other Pages about Eagle Ridge Ultralight Flightpark

Update a link
 
Copyright © AirNav, LLC. All rights reserved. Privacy Policy  Contact